Pagina principale
METAR-TAF:

METAR-TAF

Aeroporti :

Aeroporto Internazionale Nnamdi Azikiwe

Abuja, Nigeria

latitudine: 9-00-24N, longitudine: 7-15-47E, altezza: 342 m

Osservazione

Il bollettino è stato emesso 1 ora e 34 minuti fa, alle 22:00 UTC
Vento 2 kt da est/nord-est
Temperature 24°C
Umidità 78%
Pressione 1013 hPa
Visibilità 10 km o più
nessuna nube inferiore a 1500 m e nessun cumulonembo

METAR: DNAA 082200Z 07002KT CAVOK 24/20 Q1013 NOSIG

Ora: 00:34 (23:34 UTC)

Previsione

Il bollettino è stato emesso 12 ore e 34 minuti fa, alle 11:00 UTC
Previsione valida dal 08 alle 12 UTC al 09 alle 18 UTC
Vento 8 kt da sud-est
Visibilità 10 km o più
nessuna nube inferiore a 1500 m e nessun cumulonembo
Temporaneamente
dal 08 alle 17 UTC al 08 alle 20 UTC
Vento 10 kt da est/nord-est

TAF: DNAA 081100Z 0812/0918 13008KT CAVOK TEMPO 0817/0820 07010KT

Osservazioni e previsioni meteorologiche di più di 4000 aeroporti (messaggi METAR e TAF).

Le stazioni disponibili sono rappresentate dai dischi gialli e rossi sulla carta.

Puntare il mouse per vedere il nome della stazione.

Clicca sopra per visualizzare le osservazioni e previsioni meteorologiche.

Per cambiare la mappa : fare clic sui pulsanti verdi con una croce nera per ingrandire, il pulsante verde con un trattino per diminuire, o sulla freccia verde per le mappe adiacenti.


METAR-TAF: